»·PEaware :: DAL619 KPSP-KLAS

DAL619 :: KPSP-KLAS

FLIGHT INFORMATION

Flight Status: Arrived
Operator:
Delta Air Lines
More flights by this operator :: More flights under this callsign
Pilot: Anonymous 15452 (15452)
Aircraft: MCDONNELL-DOUGLAS MD-88
(MD88)
More flights by this aircraft type
Origin: KPSP Palm Springs Intl
United States
Destination: KLAS McCarran Intl
United States
More flights between these airports :: More routes between these airports
Route: +CATH1 PSP TNP KEPEC6
File this flight plan on PilotEdge
Remarks:
Altitude:
(Current/Filed)
27,000ft
Speed:
(Current/Filed)
430kts
Departed: 27-Nov-17 10:07 PM
Arrived: 27-Nov-17 10:56 PM
Distance/Time
Traveled:
151nm/0:49
Distance/Time
To Go:
Arrived

Flight Plot

Page will automatically refresh every two minutes.

Flight plan parsing failed; only flown route is shown


Map Options




Map Legend


Flown Route
Filed Route
Departure Airport
Arrival Airport
Navaid (VOR, NDB)
Fix

Horizontal Profiles

Position Reports

Time Latitude Longitude Heading Altitude Ground
Speed
27-Nov-17 21:49 33.823761 -116.506125 225 483ft 0kts
27-Nov-17 21:50 33.823761 -116.506125 225 483ft 0kts
27-Nov-17 21:51 33.823761 -116.506125 225 483ft 0kts
27-Nov-17 21:52 33.823761 -116.506125 225 483ft 0kts
27-Nov-17 21:53 33.823761 -116.506125 225 483ft 0kts
27-Nov-17 21:54 33.823761 -116.506125 225 483ft 0kts
27-Nov-17 21:55 33.823761 -116.506125 225 483ft 0kts
27-Nov-17 21:56 33.823761 -116.506125 225 483ft 0kts
27-Nov-17 21:57 33.823761 -116.506125 225 483ft 0kts
27-Nov-17 21:58 33.823761 -116.506125 225 483ft 0kts
27-Nov-17 21:59 33.823761 -116.506125 225 483ft 0kts
27-Nov-17 22:00 33.823761 -116.506125 225 483ft 0kts
27-Nov-17 22:01 33.823761 -116.506125 225 483ft 0kts
27-Nov-17 22:02 33.823824 -116.506047 225 483ft 2kts
27-Nov-17 22:03 33.824276 -116.505833 166 483ft 2kts
27-Nov-17 22:04 33.824486 -116.505958 142 483ft 0kts
27-Nov-17 22:05 33.824486 -116.505958 142 483ft 0kts
27-Nov-17 22:06 33.824404 -116.505884 142 483ft 2kts
27-Nov-17 22:07 33.822980 -116.503964 100 483ft 14kts
27-Nov-17 22:08 33.818713 -116.499923 132 483ft 18kts
27-Nov-17 22:09 33.818526 -116.499261 92 483ft 0kts
27-Nov-17 22:10 33.818526 -116.499261 92 483ft 0kts
27-Nov-17 22:11 33.818527 -116.498786 83 483ft 7kts
27-Nov-17 22:12 33.826158 -116.504522 322 483ft 113kts
27-Nov-17 22:13 33.860614 -116.536752 320 1596ft 168kts
27-Nov-17 22:14 33.898839 -116.569933 356 3748ft 175kts
27-Nov-17 22:15 33.936789 -116.533905 66 6478ft 193kts
27-Nov-17 22:16 33.932108 -116.468471 117 7048ft 237kts
27-Nov-17 22:17 33.875888 -116.413395 119 8361ft 293kts
27-Nov-17 22:18 33.889607 -116.332374 56 10203ft 306kts
27-Nov-17 22:19 33.925052 -116.248081 59 11610ft 346kts
27-Nov-17 22:20 33.967178 -116.140925 60 13876ft 362kts
27-Nov-17 22:21 34.010206 -116.030689 59 16015ft 375kts
27-Nov-17 22:22 34.055315 -115.915291 59 18033ft 388kts
27-Nov-17 22:23 34.101042 -115.798588 59 19860ft 401kts
27-Nov-17 22:24 34.168317 -115.705639 36 21553ft 398kts
27-Nov-17 22:25 34.250766 -115.614035 37 23212ft 411kts
27-Nov-17 22:26 34.332953 -115.527686 24 24723ft 413kts
27-Nov-17 22:27 34.437465 -115.480556 13 26167ft 416kts
27-Nov-17 22:28 34.546654 -115.433247 13 27135ft 426kts
27-Nov-17 22:29 34.649130 -115.388456 13 27064ft 426kts
27-Nov-17 22:30 34.754640 -115.342797 10 27001ft 423kts
27-Nov-17 22:31 34.855289 -115.355664 337 26983ft 359kts
27-Nov-17 22:32 34.947973 -115.393993 339 25168ft 346kts
27-Nov-17 22:33 35.018969 -115.422054 340 23788ft 334kts
27-Nov-17 22:34 35.100379 -115.454019 341 22190ft 318kts
27-Nov-17 22:35 35.180023 -115.485276 341 20705ft 304kts
27-Nov-17 22:36 35.257682 -115.515756 341 19255ft 291kts
27-Nov-17 22:37 35.332666 -115.545185 341 17852ft 280kts
27-Nov-17 22:38 35.406597 -115.574229 343 16472ft 286kts
27-Nov-17 22:39 35.481893 -115.603757 343 15074ft 283kts
27-Nov-17 22:40 35.555583 -115.632672 343 13690ft 276kts
27-Nov-17 22:41 35.615994 -115.656374 343 12756ft 265kts
27-Nov-17 22:42 35.686437 -115.677691 349 13025ft 268kts
27-Nov-17 22:43 35.740984 -115.630151 64 13033ft 291kts
27-Nov-17 22:44 35.795564 -115.573735 1 13025ft 268kts
27-Nov-17 22:45 35.866257 -115.589782 329 13125ft 268kts
27-Nov-17 22:46 35.936544 -115.590017 27 13018ft 277kts
27-Nov-17 22:47 35.987651 -115.521795 66 12551ft 286kts
27-Nov-17 22:48 36.013171 -115.433426 63 11557ft 267kts
27-Nov-17 22:49 36.031524 -115.348218 90 10702ft 275kts
27-Nov-17 22:50 36.023515 -115.263294 90 9688ft 273kts
27-Nov-17 22:51 36.016797 -115.173552 89 8758ft 260kts
27-Nov-17 22:52 36.011638 -115.092375 89 7724ft 262kts
27-Nov-17 22:53 36.006890 -115.000759 89 6428ft 268kts
27-Nov-17 22:54 36.003325 -114.909520 85 5439ft 262kts
27-Nov-17 22:55 36.048842 -114.866599 1 4752ft 218kts
27-Nov-17 22:56 36.076201 -114.908908 264 4776ft 178kts
27-Nov-17 22:57 36.073745 -114.969619 269 4655ft 171kts
27-Nov-17 22:58 36.073566 -115.029433 273 3632ft 165kts
27-Nov-17 22:59 36.073435 -115.083062 275 2710ft 137kts
27-Nov-17 23:00 36.073626 -115.132379 274 2129ft 133kts
27-Nov-17 23:01 36.074736 -115.155175 302 2120ft 25kts
27-Nov-17 23:02 36.077841 -115.158072 40 2120ft 20kts
27-Nov-17 23:03 36.078038 -115.151763 91 2120ft 21kts
27-Nov-17 23:04 36.077727 -115.146517 95 2120ft 8kts
27-Nov-17 23:05 36.077578 -115.143611 92 2120ft 16kts
27-Nov-17 23:06 36.079966 -115.140382 55 2120ft 0kts

Navigation Log

Ident Type
Flight plan parsing failed, navigation log unavailable